createdAt,value
2022-10-18T00:00:27.010Z,9.05
2022-10-18T00:03:14.022Z,7.95
2022-10-18T00:05:40.811Z,9.57
2022-10-18T00:08:07.763Z,9.68
2022-10-18T00:10:34.570Z,8.07
2022-10-18T00:13:01.758Z,8.32
2022-10-18T00:15:28.555Z,6.85
2022-10-18T00:17:55.506Z,9.23
2022-10-18T00:20:22.380Z,10.35
2022-10-18T00:22:49.386Z,12.55
2022-10-18T00:25:17.677Z,9.18
2022-10-18T00:27:44.660Z,8.82
2022-10-18T00:30:11.795Z,11.90
2022-10-18T00:32:40.017Z,9.55
2022-10-18T00:35:08.433Z,6.65
2022-10-18T00:37:35.835Z,7.55
2022-10-18T00:40:02.610Z,7.82
2022-10-18T00:42:32.842Z,7.80
2022-10-18T00:45:20.831Z,8.30
2022-10-18T00:47:53.644Z,8.48
2022-10-18T00:50:22.161Z,6.63
2022-10-18T00:52:54.125Z,9.60
2022-10-18T00:55:21.218Z,7.25
2022-10-18T00:57:50.019Z,10.38
2022-10-18T01:00:17.941Z,9.57
2022-10-18T01:02:46.615Z,11.10
2022-10-18T01:05:18.362Z,7.40
2022-10-18T01:08:16.268Z,9.20
2022-10-18T01:11:00.246Z,6.50
2022-10-18T01:14:04.343Z,10.90
2022-10-18T01:16:34.138Z,8.60
2022-10-18T01:19:26.812Z,8.55
2022-10-18T01:22:02.884Z,7.03
2022-10-18T01:24:45.548Z,8.30
2022-10-18T01:27:35.196Z,10.15
2022-10-18T01:30:29.611Z,7.75
2022-10-18T01:33:05.493Z,7.97
2022-10-18T01:35:39.710Z,9.43
2022-10-18T01:38:11.892Z,7.90
2022-10-18T01:40:41.883Z,9.73
2022-10-18T01:43:10.788Z,8.80
2022-10-18T01:45:38.065Z,8.13
2022-10-18T01:48:05.510Z,9.65
2022-10-18T01:50:35.293Z,6.95
2022-10-18T01:53:02.437Z,10.27
2022-10-18T01:55:46.376Z,6.85
2022-10-18T01:58:51.530Z,8.75
2022-10-18T02:01:36.866Z,9.98
2022-10-18T02:04:33.020Z,12.70
2022-10-18T02:07:12.719Z,7.28
2022-10-18T02:09:46.730Z,6.65
2022-10-18T02:12:16.384Z,7.68
2022-10-18T02:17:13.193Z,8.55
2022-10-18T02:19:54.023Z,8.82
2022-10-18T02:22:26.321Z,8.07
2022-10-18T02:24:57.078Z,7.57
2022-10-18T02:27:24.706Z,10.15
2022-10-18T02:29:52.808Z,10.65
2022-10-18T02:32:52.925Z,6.72
2022-10-18T02:35:29.198Z,9.10
2022-10-18T02:37:58.853Z,12.00
2022-10-18T02:42:57.808Z,7.78
2022-10-18T02:45:26.388Z,12.27
2022-10-18T02:47:53.477Z,8.25
2022-10-18T02:50:20.224Z,7.68
2022-10-18T02:52:47.166Z,9.70
2022-10-18T02:55:13.926Z,6.95
2022-10-18T02:57:41.074Z,8.50
2022-10-18T03:00:08.425Z,7.97
2022-10-18T03:02:35.533Z,7.38
2022-10-18T03:05:02.376Z,6.97
2022-10-18T03:07:29.478Z,7.80
2022-10-18T03:09:56.447Z,7.75
2022-10-18T03:12:23.480Z,8.27
2022-10-18T03:14:50.242Z,7.68
2022-10-18T03:17:17.290Z,8.73
2022-10-18T03:19:44.092Z,8.82
2022-10-18T03:22:11.055Z,8.80
2022-10-18T03:24:37.836Z,10.05
2022-10-18T03:27:04.870Z,7.57
2022-10-18T03:29:31.675Z,9.52
2022-10-18T03:31:58.622Z,8.38
2022-10-18T03:34:25.433Z,6.70
2022-10-18T03:36:52.430Z,7.95
2022-10-18T03:39:19.247Z,8.63
2022-10-18T03:41:46.297Z,8.18
2022-10-18T03:44:13.041Z,9.95
2022-10-18T03:46:40.031Z,9.85
2022-10-18T03:49:06.790Z,8.55
2022-10-18T03:51:33.798Z,8.15
2022-10-18T03:54:00.687Z,12.88
2022-10-18T03:56:27.645Z,8.32
2022-10-18T03:58:54.479Z,7.97
2022-10-18T04:01:21.485Z,8.55
2022-10-18T04:03:48.324Z,8.43
2022-10-18T04:06:15.272Z,8.57
2022-10-18T04:08:42.052Z,11.52
2022-10-18T04:11:09.971Z,9.10
2022-10-18T04:13:37.144Z,8.35
2022-10-18T04:16:04.633Z,8.90
2022-10-18T04:18:31.422Z,11.35
2022-10-18T04:20:58.951Z,6.43
2022-10-18T04:23:25.700Z,8.02
2022-10-18T04:25:52.782Z,10.48
2022-10-18T04:28:19.522Z,6.60
2022-10-18T04:30:51.350Z,7.60
2022-10-18T04:33:18.582Z,10.48
2022-10-18T04:35:50.638Z,6.95
2022-10-18T04:38:17.487Z,10.45
2022-10-18T04:40:44.493Z,8.07
2022-10-18T04:43:11.561Z,11.38
2022-10-18T04:45:38.583Z,6.85
2022-10-18T04:48:05.670Z,9.07
2022-10-18T04:50:32.667Z,8.30
2022-10-18T04:52:59.420Z,7.88
2022-10-18T04:55:26.445Z,7.80
2022-10-18T04:57:53.746Z,6.95
2022-10-18T05:00:21.057Z,8.50
2022-10-18T05:02:47.866Z,6.57
2022-10-18T05:05:15.101Z,11.05
2022-10-18T05:07:41.879Z,10.65
2022-10-18T05:10:10.127Z,7.50
2022-10-18T05:12:36.914Z,9.82
2022-10-18T05:15:04.519Z,10.45
2022-10-18T05:17:31.310Z,8.55
2022-10-18T05:19:58.907Z,11.93
2022-10-18T05:22:25.632Z,21.17
2022-10-18T05:24:52.611Z,9.57
2022-10-18T05:27:19.368Z,7.85
2022-10-18T05:29:46.453Z,12.82
2022-10-18T05:32:13.261Z,5.60
2022-10-18T05:34:40.367Z,10.95
2022-10-18T05:37:07.388Z,5.40
2022-10-18T05:39:34.402Z,8.32
2022-10-18T05:42:02.460Z,7.35
2022-10-18T05:44:29.524Z,8.27
2022-10-18T05:46:56.321Z,7.85
2022-10-18T05:49:23.546Z,12.18
2022-10-18T05:51:50.421Z,7.28
2022-10-18T05:54:17.915Z,7.28
2022-10-18T05:56:44.776Z,6.75
2022-10-18T05:59:12.213Z,5.18
2022-10-18T06:01:40.519Z,8.45
2022-10-18T06:04:08.099Z,12.27
2022-10-18T06:06:34.942Z,5.68
2022-10-18T06:09:03.530Z,10.15
2022-10-18T06:11:31.168Z,11.00
2022-10-18T06:13:58.415Z,6.68
2022-10-18T06:16:31.256Z,7.82
2022-10-18T06:19:00.184Z,5.95
2022-10-18T06:21:27.218Z,7.93
2022-10-18T06:23:58.835Z,6.00
2022-10-18T06:26:28.253Z,7.60
2022-10-18T06:28:55.411Z,8.13
2022-10-18T06:31:22.483Z,6.35
2022-10-18T06:33:49.999Z,8.43
2022-10-18T06:36:24.136Z,8.07
2022-10-18T06:38:51.351Z,9.18
2022-10-18T06:41:19.404Z,6.82
2022-10-18T06:43:50.470Z,7.88
2022-10-18T06:46:17.454Z,6.40
2022-10-18T06:48:44.577Z,7.20
2022-10-18T06:51:11.922Z,8.80
2022-10-18T06:53:43.907Z,6.97
2022-10-18T06:56:20.239Z,7.40
2022-10-18T06:58:47.450Z,7.68
2022-10-18T07:01:17.159Z,8.40
2022-10-18T07:03:46.054Z,7.70
2022-10-18T07:06:14.910Z,9.38
2022-10-18T07:11:15.266Z,7.25
2022-10-18T07:13:42.319Z,7.75
2022-10-18T07:16:14.141Z,7.10
2022-10-18T07:18:48.385Z,8.27
2022-10-18T07:21:17.286Z,10.77
2022-10-18T07:26:23.541Z,8.88
2022-10-18T07:28:57.950Z,6.53
2022-10-18T07:31:25.440Z,6.25
2022-10-18T07:33:53.411Z,8.15
2022-10-18T07:36:22.169Z,8.40
2022-10-18T07:41:16.494Z,8.70
2022-10-18T07:56:46.023Z,11.82
2022-10-18T07:59:13.078Z,37.65
2022-10-18T08:01:40.056Z,31.05
2022-10-18T08:04:08.437Z,46.70
2022-10-18T08:06:36.661Z,26.58
2022-10-18T08:09:04.151Z,43.88
2022-10-18T08:11:31.233Z,44.10
2022-10-18T08:13:58.459Z,26.27
2022-10-18T08:16:28.823Z,24.02
2022-10-18T08:18:58.196Z,10.75
2022-10-18T08:21:26.432Z,7.63
2022-10-18T08:23:53.986Z,24.83
2022-10-18T08:26:22.830Z,13.50
2022-10-18T08:28:54.382Z,12.63
2022-10-18T08:31:36.757Z,9.55
2022-10-18T08:34:03.742Z,48.05
2022-10-18T08:36:30.549Z,39.40
2022-10-18T08:38:57.556Z,22.10
2022-10-18T08:41:37.721Z,14.82
2022-10-18T08:44:13.572Z,11.95
2022-10-18T08:46:45.538Z,9.75
2022-10-18T08:49:38.366Z,10.38
2022-10-18T08:52:28.668Z,6.97
2022-10-18T08:55:00.229Z,6.13
2022-10-18T08:57:27.083Z,10.68
2022-10-18T08:59:54.141Z,10.68
2022-10-18T09:02:46.933Z,8.52
2022-10-18T09:05:31.701Z,13.43
2022-10-18T09:08:01.395Z,9.75
2022-10-18T09:10:49.705Z,6.88
2022-10-18T09:13:28.711Z,8.48
2022-10-18T09:15:59.649Z,8.30
2022-10-18T09:18:43.020Z,6.32
2022-10-18T09:21:24.358Z,6.50
2022-10-18T09:24:33.140Z,7.72
2022-10-18T09:27:22.362Z,6.28
2022-10-18T09:29:54.799Z,8.20
2022-10-18T09:32:52.773Z,10.20
2022-10-18T09:35:30.668Z,9.57
2022-10-18T09:38:04.720Z,9.48
2022-10-18T09:40:38.970Z,8.80
2022-10-18T09:43:12.193Z,12.15
2022-10-18T09:45:44.858Z,10.43
2022-10-18T09:48:34.782Z,9.35
2022-10-18T09:51:08.886Z,9.98
2022-10-18T09:53:57.018Z,6.95
2022-10-18T09:56:35.569Z,7.17
2022-10-18T09:59:04.782Z,5.47
2022-10-18T10:01:33.334Z,7.65
2022-10-18T10:04:00.446Z,7.22
2022-10-18T10:06:32.354Z,5.95
2022-10-18T10:09:06.842Z,6.63
2022-10-18T10:11:40.423Z,6.15
2022-10-18T10:14:09.418Z,6.25
2022-10-18T10:16:44.980Z,9.20
2022-10-18T10:19:32.254Z,6.13
2022-10-18T10:22:05.236Z,11.05
2022-10-18T10:24:48.797Z,6.22
2022-10-18T10:27:24.722Z,12.93
2022-10-18T10:29:56.734Z,6.63
2022-10-18T10:34:55.011Z,7.93
2022-10-18T10:37:24.248Z,7.45
2022-10-18T10:40:19.219Z,6.72
2022-10-18T10:43:04.283Z,6.50
2022-10-18T10:46:14.084Z,5.22
2022-10-18T10:49:21.778Z,9.38
2022-10-18T10:51:53.684Z,7.50
2022-10-18T10:54:35.969Z,8.07
2022-10-18T10:57:12.658Z,7.78
2022-10-18T10:59:44.454Z,16.52
2022-10-18T11:02:15.269Z,17.23
2022-10-18T11:04:42.722Z,8.05
2022-10-18T11:07:09.658Z,7.90
2022-10-18T11:09:40.485Z,7.28
2022-10-18T11:12:38.209Z,8.98
2022-10-18T11:15:11.970Z,12.82
2022-10-18T11:17:59.266Z,7.20
2022-10-18T11:20:29.975Z,8.40
2022-10-18T11:22:56.877Z,7.10
2022-10-18T11:25:27.761Z,7.70
2022-10-18T11:28:01.682Z,7.78
2022-10-18T11:30:55.393Z,13.25
2022-10-18T11:33:56.389Z,7.85
2022-10-18T11:36:38.590Z,7.28
2022-10-18T11:39:24.606Z,7.43
2022-10-18T11:41:55.242Z,10.68
2022-10-18T11:44:25.277Z,6.07
2022-10-18T11:47:03.738Z,14.40
2022-10-18T11:49:54.688Z,39.97
2022-10-18T11:52:39.551Z,8.10
2022-10-18T11:55:59.078Z,7.00
2022-10-18T11:59:11.150Z,9.75
2022-10-18T12:01:45.468Z,6.95
2022-10-18T12:04:18.177Z,30.10
2022-10-18T12:06:49.310Z,6.90
2022-10-18T12:09:28.620Z,7.63
2022-10-18T12:12:03.286Z,8.07
2022-10-18T12:14:36.995Z,7.97
2022-10-18T12:17:40.678Z,6.15
2022-10-18T12:20:01.549Z,7.60
2022-10-18T12:22:42.339Z,6.95
2022-10-18T12:25:13.367Z,6.60
2022-10-18T12:27:58.133Z,7.07
2022-10-18T12:30:42.362Z,8.27
2022-10-18T12:33:27.840Z,30.75
2022-10-18T12:36:21.317Z,21.95
2022-10-18T12:38:53.593Z,11.43
2022-10-18T12:41:34.054Z,8.73
2022-10-18T12:44:24.270Z,9.52
2022-10-18T12:46:56.642Z,8.20
2022-10-18T12:49:34.322Z,16.50
2022-10-18T12:52:04.967Z,12.25
2022-10-18T12:54:35.122Z,16.42
2022-10-18T12:57:04.739Z,9.65
2022-10-18T12:59:31.882Z,7.35
2022-10-18T13:02:20.669Z,9.55
2022-10-18T13:04:48.829Z,18.60
2022-10-18T13:07:43.249Z,18.23
2022-10-18T13:10:10.184Z,22.52
2022-10-18T13:12:58.117Z,9.32
2022-10-18T13:15:42.384Z,28.70
2022-10-18T13:18:41.055Z,9.48
2022-10-18T13:23:53.605Z,13.32
2022-10-18T13:26:20.507Z,16.40
2022-10-18T13:28:59.344Z,21.65
2022-10-18T13:34:33.144Z,8.13
2022-10-18T13:37:01.765Z,9.10
2022-10-18T13:39:29.951Z,16.23
2022-10-18T13:41:57.996Z,24.85
2022-10-18T13:44:31.985Z,25.33
2022-10-18T13:46:58.940Z,24.80
2022-10-18T13:49:49.641Z,38.55
2022-10-18T13:52:28.641Z,36.83
2022-10-18T13:55:26.478Z,22.73
2022-10-18T13:58:15.445Z,24.83
2022-10-18T14:01:14.412Z,17.30
2022-10-18T14:03:58.707Z,20.90
2022-10-18T14:06:33.403Z,47.33
2022-10-18T14:09:40.346Z,17.20
2022-10-18T14:12:34.019Z,20.10
2022-10-18T14:15:17.446Z,48.03
2022-10-18T14:18:02.132Z,42.17
2022-10-18T14:20:48.963Z,35.70
2022-10-18T14:23:25.890Z,59.03
2022-10-18T14:26:05.713Z,50.97
2022-10-18T14:28:54.956Z,56.92
2022-10-18T14:31:19.847Z,53.53
2022-10-18T14:33:57.038Z,36.90
2022-10-18T14:36:27.687Z,36.17
2022-10-18T14:38:54.371Z,52.88
2022-10-18T14:41:47.440Z,47.38
2022-10-18T14:44:14.803Z,65.47
2022-10-18T14:46:43.731Z,68.07
2022-10-18T14:49:12.639Z,49.47
2022-10-18T14:51:41.913Z,31.50
2022-10-18T14:54:15.870Z,30.27
2022-10-18T14:56:43.965Z,26.77
2022-10-18T14:59:20.455Z,33.78
2022-10-18T15:01:55.305Z,53.13
2022-10-18T15:04:27.779Z,33.25
2022-10-18T15:06:56.054Z,32.08
2022-10-18T15:09:24.196Z,128.98
2022-10-18T15:11:54.795Z,178.95
2022-10-18T15:14:22.289Z,263.80
2022-10-18T15:16:59.538Z,274.88
2022-10-18T15:19:34.281Z,172.45
2022-10-18T15:22:31.353Z,88.50
2022-10-18T15:25:15.063Z,90.32
2022-10-18T15:27:50.722Z,70.97
2022-10-18T15:30:23.054Z,92.18
2022-10-18T15:32:56.259Z,103.72
2022-10-18T15:35:32.405Z,79.00
2022-10-18T15:38:13.622Z,38.40
2022-10-18T15:40:42.215Z,79.28
2022-10-18T15:43:24.322Z,82.53
2022-10-18T15:46:00.134Z,74.97
2022-10-18T15:48:35.734Z,72.65
2022-10-18T15:51:05.181Z,48.55
2022-10-18T15:53:43.160Z,58.83
2022-10-18T15:56:34.486Z,43.85
2022-10-18T15:59:20.701Z,32.60
2022-10-18T16:01:47.680Z,45.38
2022-10-18T16:04:28.159Z,42.70
2022-10-18T16:06:56.373Z,41.45
2022-10-18T16:09:25.320Z,42.10
2022-10-18T16:11:56.606Z,43.33
2022-10-18T16:14:25.346Z,41.15
2022-10-18T16:16:55.083Z,28.38
2022-10-18T16:19:23.107Z,24.98
2022-10-18T16:21:51.788Z,242.95
2022-10-18T16:24:18.816Z,41.53
2022-10-18T16:26:46.120Z,23.48
2022-10-18T16:29:21.676Z,14.05
2022-10-18T16:31:50.856Z,18.75
2022-10-18T16:36:44.963Z,85.75
2022-10-18T16:39:17.455Z,43.33
2022-10-18T16:41:44.863Z,88.97
2022-10-18T16:44:12.306Z,49.00
2022-10-18T16:46:39.809Z,72.82
2022-10-18T16:49:07.508Z,26.35
2022-10-18T16:51:34.304Z,27.90
2022-10-18T16:54:01.550Z,67.97
2022-10-18T16:56:31.275Z,81.85
2022-10-18T16:58:59.192Z,113.05
2022-10-18T17:01:26.867Z,103.13
2022-10-18T17:03:55.311Z,63.08
2022-10-18T17:06:27.657Z,68.03
2022-10-18T17:08:56.531Z,58.17
2022-10-18T17:11:25.018Z,18.58
2022-10-18T17:13:52.044Z,19.23
2022-10-18T17:19:04.839Z,39.60
2022-10-18T17:21:33.565Z,76.70
2022-10-18T17:24:05.897Z,21.52
2022-10-18T17:26:34.067Z,21.70
2022-10-18T17:29:04.720Z,19.00
2022-10-18T17:31:32.353Z,21.67
2022-10-18T17:34:01.798Z,55.92
2022-10-18T17:36:30.724Z,19.95
2022-10-18T17:38:58.398Z,25.60
2022-10-18T17:41:25.882Z,19.83
2022-10-18T17:43:52.854Z,27.73
2022-10-18T17:46:19.731Z,25.23
2022-10-18T17:48:47.207Z,27.23
2022-10-18T17:51:16.551Z,22.65
2022-10-18T17:53:44.206Z,18.75
2022-10-18T17:56:12.436Z,25.48
2022-10-18T17:58:39.927Z,17.47
2022-10-18T18:01:10.406Z,26.20
2022-10-18T18:03:37.593Z,28.55
2022-10-18T18:06:16.788Z,30.30
2022-10-18T18:08:45.173Z,22.70
2022-10-18T18:11:12.384Z,18.70
2022-10-18T18:13:39.588Z,16.83
2022-10-18T18:16:20.573Z,25.50
2022-10-18T18:18:50.313Z,18.23
2022-10-18T18:21:17.566Z,16.00
2022-10-18T18:23:45.184Z,21.77
2022-10-18T18:26:12.274Z,17.33
2022-10-18T18:28:39.338Z,16.45
2022-10-18T18:31:11.370Z,17.02
2022-10-18T18:33:38.524Z,26.05
2022-10-18T18:36:06.831Z,20.95
2022-10-18T18:38:36.378Z,21.63
2022-10-18T18:43:30.982Z,21.17
2022-10-18T18:45:58.071Z,25.98
2022-10-18T18:48:26.969Z,29.35
2022-10-18T18:50:54.187Z,18.60
2022-10-18T18:53:21.221Z,26.63
2022-10-18T18:55:50.734Z,19.45
2022-10-18T18:58:19.036Z,14.95
2022-10-18T19:00:46.048Z,16.38
2022-10-18T19:03:13.124Z,21.95
2022-10-18T19:05:39.943Z,23.42
2022-10-18T19:08:07.000Z,20.38
2022-10-18T19:10:33.827Z,20.52
2022-10-18T19:13:00.816Z,16.80
2022-10-18T19:15:27.619Z,18.60
2022-10-18T19:17:56.248Z,14.77
2022-10-18T19:20:23.178Z,12.63
2022-10-18T19:22:50.183Z,16.20
2022-10-18T19:25:17.058Z,16.27
2022-10-18T19:27:44.107Z,16.73
2022-10-18T19:30:12.434Z,23.63
2022-10-18T19:32:39.409Z,14.93
2022-10-18T19:35:06.368Z,17.45
2022-10-18T19:37:33.561Z,11.82
2022-10-18T19:40:00.888Z,14.13
2022-10-18T19:42:31.182Z,12.73
2022-10-18T19:44:58.477Z,10.63
2022-10-18T19:47:25.476Z,16.35
2022-10-18T19:49:53.833Z,17.95
2022-10-18T19:52:20.824Z,10.88
2022-10-18T19:54:49.049Z,13.43
2022-10-18T19:57:16.035Z,15.40
2022-10-18T19:59:42.831Z,17.83
2022-10-18T20:02:15.190Z,11.60
2022-10-18T20:04:42.087Z,13.82
2022-10-18T20:07:09.344Z,14.48
2022-10-18T20:09:36.478Z,11.85
2022-10-18T20:12:03.833Z,13.15
2022-10-18T20:14:30.558Z,16.13
2022-10-18T20:16:57.561Z,11.68
2022-10-18T20:19:24.310Z,13.52
2022-10-18T20:21:51.270Z,15.63
2022-10-18T20:24:18.007Z,12.75
2022-10-18T20:26:45.272Z,11.35
2022-10-18T20:29:12.174Z,12.60
2022-10-18T20:31:39.549Z,12.30
2022-10-18T20:34:10.550Z,12.23
2022-10-18T20:36:38.207Z,17.50
2022-10-18T20:39:06.061Z,14.02
2022-10-18T20:41:35.519Z,13.88
2022-10-18T20:44:07.060Z,12.48
2022-10-18T20:46:36.077Z,12.75
2022-10-18T20:49:04.056Z,12.60
2022-10-18T20:51:35.450Z,14.77
2022-10-18T20:56:34.620Z,13.48
2022-10-18T20:59:01.824Z,15.07
2022-10-18T21:01:34.084Z,11.80
2022-10-18T21:04:03.639Z,12.82
2022-10-18T21:06:32.994Z,14.68
2022-10-18T21:09:08.658Z,14.75
2022-10-18T21:11:37.974Z,14.65
2022-10-18T21:14:06.174Z,11.18
2022-10-18T21:16:35.382Z,11.75
2022-10-18T21:19:08.113Z,11.57
2022-10-18T21:21:35.800Z,13.32
2022-10-18T21:24:06.954Z,15.50
2022-10-18T21:26:35.763Z,11.38
2022-10-18T21:29:04.524Z,11.23
2022-10-18T21:31:37.824Z,14.35
2022-10-18T21:34:17.161Z,12.10
2022-10-18T21:36:46.182Z,14.20
2022-10-18T21:39:15.689Z,11.70
2022-10-18T21:41:43.565Z,27.40
2022-10-18T21:44:11.757Z,12.98
2022-10-18T21:46:40.232Z,13.37
2022-10-18T21:49:07.842Z,11.07
2022-10-18T21:51:35.065Z,12.68
2022-10-18T21:54:01.821Z,12.50
2022-10-18T21:56:34.214Z,12.50
2022-10-18T21:59:01.873Z,12.05
2022-10-18T22:01:39.477Z,11.95
2022-10-18T22:04:17.096Z,10.77
2022-10-18T22:06:44.124Z,13.18
2022-10-18T22:09:10.910Z,15.48
2022-10-18T22:11:41.762Z,15.98
2022-10-18T22:14:08.956Z,12.82
2022-10-18T22:16:36.295Z,15.35
2022-10-18T22:19:05.194Z,11.73
2022-10-18T22:21:32.877Z,11.68
2022-10-18T22:24:00.471Z,15.40
2022-10-18T22:26:29.984Z,13.23
2022-10-18T22:31:31.242Z,12.43
2022-10-18T22:34:01.017Z,17.77
2022-10-18T22:36:28.151Z,15.23
2022-10-18T22:38:55.216Z,14.68
2022-10-18T22:41:22.377Z,19.58
2022-10-18T22:43:53.352Z,14.27
2022-10-18T22:46:21.068Z,17.65
2022-10-18T22:48:48.531Z,17.20
2022-10-18T22:51:15.885Z,14.55
2022-10-18T22:53:42.739Z,18.27
2022-10-18T22:56:13.560Z,16.88
2022-10-18T22:58:40.345Z,15.52
2022-10-18T23:01:10.037Z,18.35
2022-10-18T23:03:37.628Z,18.30
2022-10-18T23:06:06.488Z,12.77
2022-10-18T23:08:33.479Z,14.90
2022-10-18T23:11:00.455Z,17.75
2022-10-18T23:13:28.003Z,17.13
2022-10-18T23:16:04.530Z,15.23
2022-10-18T23:18:33.239Z,15.23
2022-10-18T23:21:05.907Z,11.40
2022-10-18T23:23:35.593Z,14.38
2022-10-18T23:26:05.292Z,17.35
2022-10-18T23:28:40.804Z,13.10
2022-10-18T23:31:13.560Z,14.68
2022-10-18T23:33:41.567Z,15.10
2022-10-18T23:36:09.445Z,11.48
2022-10-18T23:38:37.347Z,15.57
2022-10-18T23:41:08.865Z,12.10
2022-10-18T23:43:36.064Z,16.23
2022-10-18T23:46:03.311Z,13.32
2022-10-18T23:48:30.593Z,14.45
2022-10-18T23:50:58.341Z,13.40
2022-10-18T23:53:25.138Z,14.48
2022-10-18T23:55:59.379Z,12.23
2022-10-18T23:58:27.380Z,14.95
